createdAt,value
2018-04-08T00:01:54.889Z,12.46
2018-04-08T00:04:20.812Z,12.47
2018-04-08T00:06:46.709Z,12.38
2018-04-08T00:09:12.648Z,12.43
2018-04-08T00:11:38.558Z,12.52
2018-04-08T00:14:04.477Z,12.53
2018-04-08T00:16:30.384Z,12.51
2018-04-08T00:18:56.232Z,12.42
2018-04-08T00:21:22.228Z,12.32
2018-04-08T00:23:48.106Z,12.26
2018-04-08T00:26:13.980Z,12.21
2018-04-08T00:28:39.941Z,12.09
2018-04-08T00:31:05.797Z,11.94
2018-04-08T00:33:31.753Z,11.94
2018-04-08T00:35:57.745Z,11.82
2018-04-08T00:38:23.604Z,11.70
2018-04-08T00:40:49.512Z,11.62
2018-04-08T00:43:15.424Z,11.57
2018-04-08T00:45:41.376Z,11.48
2018-04-08T00:48:07.241Z,11.44
2018-04-08T00:50:33.169Z,11.39
2018-04-08T00:52:59.153Z,11.40
2018-04-08T00:55:25.049Z,11.38
2018-04-08T00:57:51.053Z,11.37
2018-04-08T01:00:17.025Z,11.32
2018-04-08T01:02:42.908Z,11.33
2018-04-08T01:05:09.001Z,11.36
2018-04-08T01:07:34.877Z,11.28
2018-04-08T01:10:00.817Z,11.25
2018-04-08T01:12:26.729Z,11.24
2018-04-08T01:14:52.577Z,11.22
2018-04-08T01:17:18.504Z,11.23
2018-04-08T01:19:45.905Z,11.20
2018-04-08T01:22:11.896Z,11.13
2018-04-08T01:24:37.756Z,11.18
2018-04-08T01:27:03.656Z,11.13
2018-04-08T01:29:29.565Z,11.08
2018-04-08T01:31:55.420Z,10.94
2018-04-08T01:34:21.392Z,10.90
2018-04-08T01:36:47.269Z,10.84
2018-04-08T01:39:13.170Z,10.83
2018-04-08T01:41:39.133Z,10.81
2018-04-08T01:44:05.061Z,10.74
2018-04-08T01:46:31.006Z,10.73
2018-04-08T01:48:56.921Z,10.74
2018-04-08T01:51:22.814Z,10.72
2018-04-08T01:53:48.720Z,10.80
2018-04-08T01:56:14.620Z,10.80
2018-04-08T01:58:40.552Z,10.82
2018-04-08T02:01:06.472Z,10.78
2018-04-08T02:03:32.368Z,10.70
2018-04-08T02:05:58.276Z,10.71
2018-04-08T02:08:24.126Z,10.80
2018-04-08T02:10:50.118Z,10.83
2018-04-08T02:13:15.990Z,10.84
2018-04-08T02:15:41.848Z,10.81
2018-04-08T02:18:07.788Z,10.83
2018-04-08T02:20:33.645Z,10.77
2018-04-08T02:22:59.596Z,10.82
2018-04-08T02:25:25.557Z,10.90
2018-04-08T02:27:51.416Z,10.86
2018-04-08T02:30:17.388Z,10.90
2018-04-08T02:32:43.282Z,10.83
2018-04-08T02:35:09.235Z,10.77
2018-04-08T02:37:35.088Z,10.62
2018-04-08T02:40:00.988Z,10.59
2018-04-08T02:42:26.898Z,10.70
2018-04-08T02:44:52.748Z,10.62
2018-04-08T02:47:18.724Z,10.68
2018-04-08T02:49:44.612Z,10.70
2018-04-08T02:52:10.494Z,10.64
2018-04-08T02:54:36.617Z,10.57
2018-04-08T02:57:02.482Z,10.60
2018-04-08T02:59:28.413Z,10.52
2018-04-08T03:01:54.321Z,10.46
2018-04-08T03:04:20.186Z,10.47
2018-04-08T03:06:46.106Z,10.49
2018-04-08T03:09:11.992Z,10.44
2018-04-08T03:11:37.953Z,10.49
2018-04-08T03:14:03.809Z,10.58
2018-04-08T03:16:29.715Z,10.60
2018-04-08T03:18:55.623Z,10.49
2018-04-08T03:21:21.481Z,10.47
2018-04-08T03:23:47.487Z,10.46
2018-04-08T03:26:13.356Z,10.35
2018-04-08T03:28:39.225Z,10.33
2018-04-08T03:31:05.261Z,10.32
2018-04-08T03:33:31.122Z,10.39
2018-04-08T03:35:57.080Z,10.36
2018-04-08T03:38:22.972Z,10.46
2018-04-08T03:40:48.856Z,10.49
2018-04-08T03:43:14.805Z,10.46
2018-04-08T03:45:40.709Z,10.45
2018-04-08T03:48:06.681Z,10.36
2018-04-08T03:50:32.568Z,10.30
2018-04-08T03:52:58.461Z,10.26
2018-04-08T03:55:24.379Z,10.32
2018-04-08T03:57:50.261Z,10.22
2018-04-08T04:00:16.569Z,10.11
2018-04-08T04:02:45.479Z,10.12
2018-04-08T04:05:11.545Z,10.15
2018-04-08T04:07:37.826Z,9.98
2018-04-08T04:10:03.691Z,10.08
2018-04-08T04:12:30.030Z,10.04
2018-04-08T04:14:55.924Z,10.05
2018-04-08T04:17:21.789Z,10.05
2018-04-08T04:20:00.026Z,9.99
2018-04-08T04:22:38.361Z,9.96
2018-04-08T04:25:18.546Z,9.87
2018-04-08T04:27:44.412Z,9.87
2018-04-08T04:30:10.339Z,9.87
2018-04-08T04:32:36.449Z,9.88
2018-04-08T04:35:02.313Z,9.81
2018-04-08T04:37:28.186Z,9.74
2018-04-08T04:39:54.072Z,9.70
2018-04-08T04:42:19.973Z,9.71
2018-04-08T04:44:45.912Z,9.70
2018-04-08T04:47:11.808Z,9.71
2018-04-08T04:49:37.667Z,9.71
2018-04-08T04:52:03.529Z,9.69
2018-04-08T04:54:29.473Z,9.71
2018-04-08T04:56:55.437Z,9.70
2018-04-08T04:59:21.297Z,9.79
2018-04-08T05:01:47.216Z,9.73
2018-04-08T05:04:13.077Z,9.75
2018-04-08T05:06:39.732Z,9.82
2018-04-08T05:09:06.116Z,9.82
2018-04-08T05:11:31.956Z,9.85
2018-04-08T05:13:57.847Z,9.95
2018-04-08T05:16:24.116Z,9.98
2018-04-08T05:18:50.017Z,9.99
2018-04-08T05:21:16.068Z,10.00
2018-04-08T05:23:41.952Z,10.06
2018-04-08T05:26:07.793Z,10.09
2018-04-08T05:28:33.644Z,10.15
2018-04-08T05:31:01.696Z,10.24
2018-04-08T05:33:27.756Z,10.25
2018-04-08T05:35:53.632Z,10.30
2018-04-08T05:38:19.568Z,10.35
2018-04-08T05:40:45.446Z,10.39
2018-04-08T05:43:11.373Z,10.47
2018-04-08T05:45:37.390Z,10.53
2018-04-08T05:48:03.269Z,10.62
2018-04-08T05:50:29.116Z,10.72
2018-04-08T05:52:55.015Z,10.73
2018-04-08T05:55:20.921Z,10.83
2018-04-08T05:57:47.724Z,10.92
2018-04-08T06:00:13.634Z,10.97
2018-04-08T06:02:39.493Z,11.05
2018-04-08T06:05:05.378Z,11.09
2018-04-08T06:07:31.340Z,11.22
2018-04-08T06:09:57.307Z,11.25
2018-04-08T06:12:23.160Z,11.24
2018-04-08T06:14:49.097Z,11.31
2018-04-08T06:17:14.966Z,11.44
2018-04-08T06:19:40.915Z,11.50
2018-04-08T06:22:06.907Z,11.59
2018-04-08T06:24:32.781Z,11.72
2018-04-08T06:26:58.633Z,11.80
2018-04-08T06:29:24.557Z,11.86
2018-04-08T06:31:50.493Z,11.97
2018-04-08T06:34:16.469Z,12.17
2018-04-08T06:36:42.395Z,12.23
2018-04-08T06:39:08.259Z,12.32
2018-04-08T06:41:34.138Z,12.43
2018-04-08T06:44:00.465Z,12.57
2018-04-08T06:46:26.418Z,12.64
2018-04-08T06:48:52.281Z,12.63
2018-04-08T06:51:18.213Z,12.77
2018-04-08T06:53:44.082Z,12.68
2018-04-08T06:56:10.017Z,12.81
2018-04-08T06:58:36.027Z,12.90
2018-04-08T07:01:02.700Z,13.10
2018-04-08T07:03:28.588Z,13.04
2018-04-08T07:05:54.476Z,13.18
2018-04-08T07:08:20.392Z,13.20
2018-04-08T07:10:46.408Z,13.19
2018-04-08T07:13:12.584Z,13.41
2018-04-08T07:15:38.456Z,13.62
2018-04-08T07:18:04.352Z,13.75
2018-04-08T07:20:30.317Z,13.82
2018-04-08T07:22:56.276Z,13.86
2018-04-08T07:25:22.140Z,13.88
2018-04-08T07:27:48.160Z,13.99
2018-04-08T07:30:14.054Z,14.07
2018-04-08T07:32:40.013Z,14.21
2018-04-08T07:35:06.138Z,14.43
2018-04-08T07:37:32.001Z,14.57
2018-04-08T07:39:58.050Z,14.38
2018-04-08T07:42:23.947Z,14.73
2018-04-08T07:44:49.858Z,14.85
2018-04-08T07:47:15.794Z,14.67
2018-04-08T07:49:41.716Z,14.74
2018-04-08T07:52:07.586Z,14.91
2018-04-08T07:54:33.441Z,14.88
2018-04-08T07:56:59.414Z,14.69
2018-04-08T07:59:25.348Z,14.87
2018-04-08T08:01:51.224Z,15.16
2018-04-08T08:04:17.246Z,14.98
2018-04-08T08:06:43.186Z,15.18
2018-04-08T08:09:09.100Z,15.46
2018-04-08T08:11:35.107Z,15.40
2018-04-08T08:14:00.973Z,15.54
2018-04-08T08:16:26.853Z,15.79
2018-04-08T08:18:54.011Z,15.95
2018-04-08T08:21:19.991Z,16.13
2018-04-08T08:23:45.945Z,16.05
2018-04-08T08:26:11.861Z,16.48
2018-04-08T08:28:37.720Z,16.49
2018-04-08T08:31:03.586Z,16.90
2018-04-08T08:33:29.525Z,17.17
2018-04-08T08:35:55.475Z,17.16
2018-04-08T08:38:21.357Z,17.31
2018-04-08T08:40:47.275Z,17.14
2018-04-08T08:43:13.186Z,17.31
2018-04-08T08:45:39.117Z,17.48
2018-04-08T08:48:05.112Z,17.36
2018-04-08T08:50:30.987Z,17.23
2018-04-08T08:52:56.837Z,17.21
2018-04-08T08:55:22.757Z,17.30
2018-04-08T08:57:48.664Z,17.27
2018-04-08T09:00:14.624Z,18.10
2018-04-08T09:02:40.516Z,17.83
2018-04-08T09:05:06.442Z,18.03
2018-04-08T09:07:32.304Z,18.21
2018-04-08T09:09:58.293Z,18.54
2018-04-08T09:12:24.258Z,18.83
2018-04-08T09:14:50.140Z,18.90
2018-04-08T09:17:16.053Z,18.51
2018-04-08T09:22:55.774Z,18.57
2018-04-08T09:25:26.600Z,18.85
2018-04-08T09:27:52.480Z,18.69
2018-04-08T09:30:18.385Z,18.64
2018-04-08T09:32:44.353Z,18.63
2018-04-08T09:35:10.424Z,18.84
2018-04-08T09:37:36.433Z,19.02
2018-04-08T09:40:02.325Z,19.28
2018-04-08T09:42:28.209Z,19.42
2018-04-08T09:44:54.120Z,19.43
2018-04-08T09:47:20.786Z,19.39
2018-04-08T09:49:46.667Z,19.50
2018-04-08T09:52:12.586Z,19.88
2018-04-08T09:54:38.454Z,20.16
2018-04-08T09:57:04.334Z,19.42
2018-04-08T09:59:31.212Z,19.99
2018-04-08T10:04:59.840Z,20.32
2018-04-08T10:07:25.704Z,20.16
2018-04-08T10:09:51.718Z,20.70
2018-04-08T10:12:17.805Z,20.42
2018-04-08T10:14:43.675Z,20.12
2018-04-08T10:17:09.551Z,20.46
2018-04-08T10:19:35.474Z,20.69
2018-04-08T10:22:01.504Z,21.06
2018-04-08T10:24:27.368Z,20.99
2018-04-08T10:26:53.268Z,21.28
2018-04-08T10:29:19.139Z,21.45
2018-04-08T10:31:45.006Z,21.02
2018-04-08T10:34:11.806Z,21.12
2018-04-08T10:36:37.661Z,21.74
2018-04-08T10:39:03.550Z,21.97
2018-04-08T10:41:29.465Z,22.30
2018-04-08T10:43:55.320Z,21.79
2018-04-08T10:46:21.329Z,21.44
2018-04-08T10:48:47.292Z,21.59
2018-04-08T10:51:13.193Z,21.70
2018-04-08T10:53:39.058Z,21.34
2018-04-08T10:56:04.965Z,21.29
2018-04-08T10:58:30.994Z,21.64
2018-04-08T11:00:56.935Z,22.04
2018-04-08T11:03:22.852Z,21.98
2018-04-08T11:05:48.726Z,22.40
2018-04-08T11:08:14.601Z,22.54
2018-04-08T11:10:40.660Z,22.37
2018-04-08T11:13:06.535Z,21.97
2018-04-08T11:15:32.406Z,22.09
2018-04-08T11:17:58.359Z,21.29
2018-04-08T11:20:24.281Z,21.46
2018-04-08T11:22:50.286Z,21.48
2018-04-08T11:25:16.480Z,21.86
2018-04-08T11:27:42.346Z,21.66
2018-04-08T11:30:08.221Z,21.32
2018-04-08T11:32:34.125Z,21.17
2018-04-08T11:35:00.131Z,21.23
2018-04-08T11:37:25.981Z,22.04
2018-04-08T11:39:51.896Z,22.64
2018-04-08T11:42:17.769Z,23.10
2018-04-08T11:44:43.655Z,23.42
2018-04-08T11:47:09.713Z,23.29
2018-04-08T11:49:35.584Z,22.33
2018-04-08T11:52:01.456Z,21.48
2018-04-08T11:54:27.368Z,21.60
2018-04-08T11:56:53.225Z,21.20
2018-04-08T11:59:19.259Z,20.82
2018-04-08T12:01:45.193Z,21.62
2018-04-08T12:04:11.070Z,21.36
2018-04-08T12:06:36.930Z,21.04
2018-04-08T12:09:02.862Z,20.99
2018-04-08T12:11:28.878Z,20.84
2018-04-08T12:13:54.737Z,21.07
2018-04-08T12:16:20.650Z,20.78
2018-04-08T12:18:46.534Z,20.65
2018-04-08T12:21:12.426Z,20.72
2018-04-08T12:23:38.558Z,20.79
2018-04-08T12:26:04.443Z,20.75
2018-04-08T12:28:30.322Z,20.97
2018-04-08T12:30:56.258Z,20.66
2018-04-08T12:33:22.139Z,20.63
2018-04-08T12:35:48.142Z,20.57
2018-04-08T12:38:14.816Z,20.52
2018-04-08T12:40:40.717Z,20.70
2018-04-08T12:43:06.577Z,20.67
2018-04-08T12:45:32.498Z,20.70
2018-04-08T12:47:58.522Z,20.73
2018-04-08T12:50:24.392Z,20.45
2018-04-08T12:52:50.307Z,20.60
2018-04-08T12:55:16.160Z,20.34
2018-04-08T12:57:42.034Z,20.13
2018-04-08T13:00:08.121Z,20.31
2018-04-08T13:02:33.990Z,20.30
2018-04-08T13:04:59.865Z,20.43
2018-04-08T13:07:25.818Z,20.56
2018-04-08T13:09:51.693Z,20.52
2018-04-08T13:12:17.717Z,20.60
2018-04-08T13:14:43.636Z,20.61
2018-04-08T13:17:09.484Z,20.28
2018-04-08T13:19:35.356Z,20.22
2018-04-08T13:22:01.310Z,20.24
2018-04-08T13:24:27.308Z,20.39
2018-04-08T13:26:53.169Z,20.49
2018-04-08T13:29:19.089Z,20.29
2018-04-08T13:31:44.963Z,20.25
2018-04-08T13:34:10.826Z,20.31
2018-04-08T13:36:36.870Z,20.37
2018-04-08T13:39:02.973Z,20.43
2018-04-08T13:41:28.833Z,20.67
2018-04-08T13:43:54.743Z,20.56
2018-04-08T13:46:20.604Z,20.63
2018-04-08T13:48:46.617Z,20.42
2018-04-08T13:51:12.520Z,20.62
2018-04-08T13:53:38.378Z,20.60
2018-04-08T13:56:04.245Z,20.71
2018-04-08T13:58:30.160Z,20.64
2018-04-08T14:00:56.188Z,20.66
2018-04-08T14:03:22.061Z,20.74
2018-04-08T14:05:47.961Z,20.27
2018-04-08T14:08:13.804Z,20.46
2018-04-08T14:10:39.684Z,20.55
2018-04-08T14:13:05.744Z,20.46
2018-04-08T14:15:31.625Z,20.57
2018-04-08T14:17:57.493Z,20.40
2018-04-08T14:20:23.393Z,20.40
2018-04-08T14:22:49.253Z,20.18
2018-04-08T14:25:15.276Z,20.09
2018-04-08T14:27:41.178Z,19.92
2018-04-08T14:30:07.053Z,20.10
2018-04-08T14:32:32.920Z,20.02
2018-04-08T14:34:58.844Z,20.17
2018-04-08T14:37:24.889Z,20.11
2018-04-08T14:39:50.750Z,20.15
2018-04-08T14:42:16.671Z,20.05
2018-04-08T14:44:42.532Z,19.92
2018-04-08T14:47:08.418Z,20.09
2018-04-08T14:49:34.461Z,19.97
2018-04-08T14:52:00.345Z,19.95
2018-04-08T14:54:26.200Z,19.96
2018-04-08T14:56:52.120Z,20.01
2018-04-08T14:59:18.017Z,19.88
2018-04-08T15:01:46.665Z,20.02
2018-04-08T15:04:09.992Z,19.98
2018-04-08T15:06:35.874Z,19.96
2018-04-08T15:09:01.759Z,19.94
2018-04-08T15:11:27.653Z,19.94
2018-04-08T15:13:53.667Z,19.98
2018-04-08T15:16:19.557Z,20.01
2018-04-08T15:18:45.474Z,19.89
2018-04-08T15:21:11.346Z,19.95
2018-04-08T15:23:37.217Z,19.87
2018-04-08T15:26:03.290Z,19.82
2018-04-08T15:28:29.158Z,19.68
2018-04-08T15:30:55.025Z,19.63
2018-04-08T15:33:20.959Z,19.69
2018-04-08T15:35:46.816Z,19.79
2018-04-08T15:38:12.809Z,19.56
2018-04-08T15:40:38.754Z,19.59
2018-04-08T15:43:04.627Z,19.56
2018-04-08T15:45:30.482Z,19.64
2018-04-08T15:47:56.398Z,19.63
2018-04-08T15:50:22.384Z,19.64
2018-04-08T15:52:48.240Z,19.34
2018-04-08T15:55:14.162Z,19.34
2018-04-08T15:57:40.026Z,19.34
2018-04-08T16:00:05.900Z,19.41
2018-04-08T16:02:31.921Z,19.35
2018-04-08T16:04:57.795Z,19.23
2018-04-08T16:07:23.692Z,19.40
2018-04-08T16:09:49.616Z,19.30
2018-04-08T16:12:15.474Z,19.26
2018-04-08T16:14:41.476Z,19.26
2018-04-08T16:17:07.400Z,19.25
2018-04-08T16:19:33.252Z,19.19
2018-04-08T16:21:59.125Z,19.11
2018-04-08T16:24:25.039Z,19.03
2018-04-08T16:26:51.045Z,19.09
2018-04-08T16:29:16.916Z,19.00
2018-04-08T16:31:42.831Z,18.88
2018-04-08T16:34:08.713Z,18.90
2018-04-08T16:36:34.571Z,18.73
2018-04-08T16:39:00.622Z,18.71
2018-04-08T16:41:26.493Z,18.66
2018-04-08T16:43:52.344Z,18.62
2018-04-08T16:46:18.258Z,18.58
2018-04-08T16:48:44.397Z,18.47
2018-04-08T16:51:10.396Z,18.44
2018-04-08T16:53:36.288Z,18.46
2018-04-08T16:56:02.184Z,18.40
2018-04-08T16:58:28.063Z,18.30
2018-04-08T17:00:53.994Z,18.21
2018-04-08T17:03:19.988Z,18.17
2018-04-08T17:05:45.841Z,18.11
2018-04-08T17:08:11.770Z,18.11
2018-04-08T17:10:37.661Z,18.01
2018-04-08T17:13:03.538Z,17.95
2018-04-08T17:15:29.604Z,17.83
2018-04-08T17:17:55.485Z,17.78
2018-04-08T17:20:21.361Z,17.66
2018-04-08T17:22:47.285Z,17.58
2018-04-08T17:25:13.172Z,17.44
2018-04-08T17:27:39.245Z,17.28
2018-04-08T17:30:05.160Z,17.15
2018-04-08T17:32:31.017Z,17.03
2018-04-08T17:34:56.880Z,16.99
2018-04-08T17:37:22.785Z,16.82
2018-04-08T17:39:48.805Z,16.96
2018-04-08T17:42:14.678Z,16.74
2018-04-08T17:44:41.791Z,16.57
2018-04-08T17:47:08.320Z,16.36
2018-04-08T17:49:34.196Z,16.15
2018-04-08T17:52:00.593Z,15.95
2018-04-08T17:54:26.442Z,15.73
2018-04-08T17:56:52.296Z,15.53
2018-04-08T17:59:18.192Z,15.33
2018-04-08T18:01:44.076Z,15.15
2018-04-08T18:04:10.096Z,14.98
2018-04-08T18:06:36.037Z,14.80
2018-04-08T18:09:01.921Z,14.62
2018-04-08T18:11:27.796Z,14.48
2018-04-08T18:13:53.713Z,14.34
2018-04-08T18:16:19.712Z,14.21
2018-04-08T18:18:45.573Z,14.14
2018-04-08T18:21:11.542Z,14.02
2018-04-08T18:23:37.516Z,13.94
2018-04-08T18:26:03.379Z,14.04
2018-04-08T18:28:29.511Z,14.13
2018-04-08T18:30:55.384Z,14.27
2018-04-08T18:33:21.299Z,14.45
2018-04-08T18:35:47.222Z,14.50
2018-04-08T18:38:13.166Z,14.37
2018-04-08T18:40:39.271Z,14.19
2018-04-08T18:43:05.380Z,14.00
2018-04-08T18:45:31.312Z,13.84
2018-04-08T18:47:57.240Z,13.66
2018-04-08T18:50:23.157Z,13.51
2018-04-08T18:52:49.187Z,13.37
2018-04-08T18:55:15.064Z,13.23
2018-04-08T18:57:41.018Z,13.15
2018-04-08T19:00:06.938Z,13.06
2018-04-08T19:02:33.371Z,12.93
2018-04-08T19:04:59.448Z,12.84
2018-04-08T19:07:25.326Z,12.72
2018-04-08T19:09:51.199Z,12.61
2018-04-08T19:12:17.126Z,12.50
2018-04-08T19:16:20.938Z,12.33
2018-04-08T19:18:46.859Z,12.24
2018-04-08T19:22:21.289Z,12.14
2018-04-08T19:24:47.392Z,12.07
2018-04-08T19:27:20.510Z,12.01
2018-04-08T19:29:46.434Z,11.93
2018-04-08T19:32:12.353Z,11.84
2018-04-08T19:34:38.225Z,11.76
2018-04-08T19:37:04.136Z,11.72
2018-04-08T19:39:30.521Z,11.67
2018-04-08T19:41:56.390Z,11.62
2018-04-08T19:44:22.392Z,11.58
2018-04-08T19:46:48.263Z,11.53
2018-04-08T19:49:14.127Z,11.49
2018-04-08T19:51:40.575Z,11.44
2018-04-08T19:54:06.441Z,11.39
2018-04-08T19:56:32.334Z,11.34
2018-04-08T19:58:58.248Z,11.27
2018-04-08T20:01:24.477Z,11.23
2018-04-08T20:03:50.494Z,11.17
2018-04-08T20:06:16.539Z,11.13
2018-04-08T20:08:42.416Z,11.06
2018-04-08T20:11:08.284Z,11.04
2018-04-08T20:13:34.211Z,10.99
2018-04-08T20:16:00.542Z,10.95
2018-04-08T20:18:26.400Z,10.90
2018-04-08T20:20:52.316Z,10.86
2018-04-08T20:23:18.185Z,10.80
2018-04-08T20:25:44.454Z,10.72
2018-04-08T20:28:10.520Z,10.67
2018-04-08T20:30:36.410Z,10.64
2018-04-08T20:33:02.278Z,10.63
2018-04-08T20:35:28.189Z,10.58
2018-04-08T20:37:54.069Z,10.51
2018-04-08T20:40:20.199Z,10.46
2018-04-08T20:42:46.108Z,10.40
2018-04-08T20:45:11.982Z,10.34
2018-04-08T20:47:37.856Z,10.31
2018-04-08T20:50:03.853Z,10.27
2018-04-08T20:52:29.882Z,10.24
2018-04-08T20:54:55.753Z,10.22
2018-04-08T20:57:21.686Z,10.19
2018-04-08T20:59:47.556Z,10.15
2018-04-08T21:02:13.452Z,10.11
2018-04-08T21:04:39.606Z,10.07
2018-04-08T21:07:05.519Z,10.01
2018-04-08T21:09:31.397Z,10.00
2018-04-08T21:11:57.309Z,9.98
2018-04-08T21:14:23.181Z,9.92
2018-04-08T21:16:49.208Z,9.81
2018-04-08T21:19:15.360Z,9.79
2018-04-08T21:21:41.226Z,9.74
2018-04-08T21:24:07.130Z,9.71
2018-04-08T21:26:33.093Z,9.66
2018-04-08T21:28:59.107Z,9.62
2018-04-08T21:31:24.985Z,9.59
2018-04-08T21:33:50.917Z,9.53
2018-04-08T21:36:16.804Z,9.49
2018-04-08T21:38:42.710Z,9.46
2018-04-08T21:41:08.785Z,9.43
2018-04-08T21:43:34.665Z,9.39
2018-04-08T21:46:00.524Z,9.33
2018-04-08T21:48:26.422Z,9.27
2018-04-08T21:50:52.312Z,9.22
2018-04-08T21:53:18.429Z,9.19
2018-04-08T21:55:44.337Z,9.17
2018-04-08T21:58:10.220Z,9.15
2018-04-08T22:00:36.164Z,9.15
2018-04-08T22:03:02.089Z,9.16
2018-04-08T22:05:28.107Z,9.19
2018-04-08T22:07:53.993Z,9.14
2018-04-08T22:10:19.961Z,9.09
2018-04-08T22:12:45.837Z,9.07
2018-04-08T22:15:12.074Z,9.07
2018-04-08T22:17:38.280Z,9.05
2018-04-08T22:20:04.158Z,9.02
2018-04-08T22:22:30.025Z,9.00
2018-04-08T22:24:56.312Z,8.98
2018-04-08T22:27:22.180Z,9.19
2018-04-08T22:29:48.182Z,9.14
2018-04-08T22:32:14.136Z,9.03
2018-04-08T22:34:39.996Z,8.97
2018-04-08T22:37:05.869Z,8.88
2018-04-08T22:39:31.809Z,8.80
2018-04-08T22:41:57.854Z,8.73
2018-04-08T22:44:23.720Z,8.68
2018-04-08T22:46:49.629Z,8.65
2018-04-08T22:49:15.535Z,8.63
2018-04-08T22:51:41.403Z,8.63
2018-04-08T22:54:07.461Z,8.57
2018-04-08T22:56:33.397Z,8.76
2018-04-08T22:58:59.297Z,8.73
2018-04-08T23:01:25.208Z,8.73
2018-04-08T23:03:51.075Z,8.75
2018-04-08T23:06:17.101Z,8.76
2018-04-08T23:08:43.025Z,8.71
2018-04-08T23:11:08.896Z,8.62
2018-04-08T23:13:34.810Z,8.49
2018-04-08T23:16:00.743Z,8.46
2018-04-08T23:18:26.761Z,8.45
2018-04-08T23:20:52.633Z,8.44
2018-04-08T23:23:18.829Z,8.45
2018-04-08T23:25:44.725Z,8.49
2018-04-08T23:28:10.576Z,8.47
2018-04-08T23:30:36.606Z,8.39
2018-04-08T23:33:02.460Z,8.36
2018-04-08T23:35:28.320Z,8.33
2018-04-08T23:37:54.204Z,8.48
2018-04-08T23:40:20.074Z,8.57
2018-04-08T23:42:46.108Z,8.41
2018-04-08T23:45:12.045Z,8.32
2018-04-08T23:47:37.913Z,8.26
2018-04-08T23:50:03.796Z,8.23
2018-04-08T23:52:29.698Z,8.47
2018-04-08T23:54:55.696Z,8.37
2018-04-08T23:57:21.630Z,8.36
2018-04-08T23:59:47.895Z,8.29
